Tuesday, July 29, 2014
10:51 UTC
  |  Log In   |  Register Free
Airport Search:

Tucson International Airport
(KTUS)

Tucson International Airport Diagram
No Airport Diagram Available

FAA data valid effective July 24, 2014 until September 18, 2014 (unless otherwise noted).

 
 
 
 
 
 
 
 
 
 
 
 
 
 

Current Aviation Weather for Tucson International Airport (KTUS)

The most recent METAR observation for KTUS was updated at: 1853 UTC
METAR Summary (Translated METAR)
KTUS
281853Z 00000KT 10SM CLR 32/15 A3016 RMK AO2 SLP164 T03220150
KDMA
(4.2 nm NE from KTUS)
281758Z AUTO 15008KT 10SM FEW130 31/17 A3016 RMK AO2 SLP171 T03110173 10311 20234 58002 $
TAF Summary (Translated TAF)
KTUS
290520Z 2906/3006 15005KT P6SM SCT250 FM292000 32005KT P6SM FEW100
KDMA
(4.2 nm NE from KTUS)
2905/3011 14006KT 9999 SKC QNH3002INS BECMG 2918/2919 32012KT 9999 FEW250 QNH2990INS TEMPO 2921/3002 VCTS SCT110CB BECMG 3003/3004 14006KT 9999 FEW170 QNH2997INS TX36/2923Z TN25/2912Z
  Airport Weather Conditions for KTUS

 Current Weather at TUS
80° F
Fair
South winds at 5.8 mph
TUS NOAA Radar

Pressure: 30.09 in
Humidity: 60%
Wind: South at 5.8 MPH (5 KT)
Dew Point: 64.9°F
Visibility: 10.00 mi


Airport Weather Forecast for KTUS

Translated METAR and TAF for KTUS
Translated METAR for KTUS (1044 UTC 29 July 2014)
found at http://aviationweather.gov/adds/metars/
 
METAR text: KTUS 290953Z 14006KT 10SM CLR 26/19 A3008 RMK AO2 SLP134 T02610189
Conditions at: KTUS (TUCSON , AZ, US) observed 0953 UTC 29 July 2014
Temperature: 26.1°C (79°F)
Dewpoint: 18.9°C (66°F) [RH = 65%]
Pressure (altimeter): 30.08 inches Hg (1018.7 mb)
[Sea-level pressure: 1013.4 mb]
Winds: from the SE (140 degrees) at 7 MPH (6 knots; 3.1 m/s)
Visibility: 10 or more miles (16+ km)
Ceiling: at least 12,000 feet AGL
Clouds: sky clear below 12,000 feet AGL
Weather: no significant weather observed at this time
Translated TAF for KTUS
Forecast for: KTUS (TUCSON , AZ, US)
TAF Text: KTUS 290520Z 2906/3006 15005KT P6SM SCT250
Forecast period: 0600 to 2000 UTC 29 July 2014
Forecast type: FROM: standard forecast or significant change
Winds: from the SSE (150 degrees) at 6 MPH (5 knots; 2.6 m/s)
Visibility: 6 or more miles (10+ km)
Clouds: scattered clouds at 25000 feet AGL
Weather: no significant weather forecast for this period
TAF Text: FM292000 32005KT P6SM FEW100
Forecast period: 2000 UTC 29 July 2014 to 0600 UTC 30 July 2014
Forecast type: FROM: standard forecast or significant change
Winds: from the NW (320 degrees) at 6 MPH (5 knots; 2.6 m/s)
Visibility: 6 or more miles (10+ km)
Clouds: few clouds at 10000 feet AGL
Weather: no significant weather forecast for this period

Find All Airport Services Find A Hotel Find A Rental Car Find A Golf Course Find A Restaurant $100 Hamburger



FBO's on the Field
FBO Company Facility Photos Services Transportation Aviation Fuel Prices: Prices include tax
Catering Weather Repair Courtesy Rental Type 100LL JetA JetA+ MOGAS 8087
 
Bombardier Aerospace

Bombardier Aerospace logo
This FBO has not yet been rated
FS:
Last Updated: Jun-27
Login to update fuel prices
SS:
Contact Bombardier AerospaceMore FBO Information
 
Atlantic Aviation

Currently rated 4.6 by 2 people
FS:Texaco
Last Updated: Jul-28
Login to update fuel prices
SS:
Contact Atlantic AviationMore FBO Information
 
Million Air

This FBO has not yet been rated
FS:Independent
Last Updated: Jul-16
Login to update fuel prices
SS:
Contact Million AirMore FBO Information
 
Million Air Tucson

Currently rated 1 by 2 people
FS:Independent
Last Updated: Jul-10
Login to update fuel prices
SS:
Contact Million Air TucsonMore FBO Information
 
Tucson Jet Center

Currently rated 4.4 by 3 people
FS:Independent
Last Updated: Jul-21
Login to update fuel prices
SS:
Contact Tucson Jet CenterMore FBO Information
 
Velocity Air Inc.

This FBO has not yet been rated
FS:Ascent
Last Updated: Jul-15
Login to update fuel prices
SS:
Contact Velocity Air Inc.More FBO Information
 
Add another FBO Facility Photos Catering Weather Repair Courtesy Rental Type 100LL JetA JetA+ MOGAS 8087
Services Transportation Aviation Fuel Prices: Prices include tax


GlobalAir.com Airport Resource Center model-print
model-print
model-print
model-print